Time;durP1;ratioP1;P1;durP2;ratioP2;P2;SDS_P1;SDS_P2;PMS_P1;PMS_P2;Temp;Humidity;BMP_temperature;BMP_pressure;BME280_temperature;BME280_humidity;BME280_pressure;Samples;Min_cycle;Max_cycle;Signal;HPM_P1;HPM_P2
2021/05/21 00:00:38;;;;;;;9.60;8.40;;;;;;;15.27;83.80;100051.41;5031426;28;20037;-74
2021/05/21 00:03:04;;;;;;;9.43;7.65;;;;;;;15.13;83.22;100027.00;5034480;28;20030;-72
2021/05/21 00:05:30;;;;;;;9.20;8.05;;;;;;;15.24;83.11;100033.19;5035327;28;20125;-71
2021/05/21 00:07:55;;;;;;;10.20;8.40;;;;;;;15.31;83.40;100041.91;5032411;28;20017;-70
2021/05/21 00:10:21;;;;;;;8.50;7.57;;;;;;;15.38;83.33;100048.94;5031416;28;20448;-73
2021/05/21 00:12:47;;;;;;;9.48;8.48;;;;;;;15.48;82.96;100040.34;5034724;28;20022;-70
2021/05/21 00:15:13;;;;;;;9.73;8.30;;;;;;;15.30;82.21;99996.84;5017345;28;20029;-74
2021/05/21 00:17:38;;;;;;;9.35;8.35;;;;;;;15.55;82.38;100037.81;5034155;28;20021;-74
2021/05/21 00:20:05;;;;;;;9.07;8.07;;;;;;;15.48;82.14;100024.75;5032798;28;20025;-71
2021/05/21 00:22:31;;;;;;;10.77;8.38;;;;;;;15.04;81.39;99966.22;5015546;28;20474;-73
2021/05/21 00:24:56;;;;;;;9.57;7.82;;;;;;;15.41;82.07;100022.94;5032086;28;20057;-75
2021/05/21 00:27:22;;;;;;;8.68;7.72;;;;;;;15.46;82.39;100016.03;5030387;28;20028;-71
2021/05/21 00:29:47;;;;;;;8.95;7.72;;;;;;;15.47;81.76;100023.00;5034028;28;20091;-74
2021/05/21 00:32:13;;;;;;;10.25;7.70;;;;;;;15.58;81.61;100023.09;5045228;28;20029;-74
2021/05/21 00:34:38;;;;;;;8.05;7.18;;;;;;;15.68;80.94;100030.13;5033896;28;20514;-73
2021/05/21 00:37:04;;;;;;;8.70;7.30;;;;;;;15.18;80.21;99942.09;5032349;28;20033;-76
2021/05/21 00:39:29;;;;;;;9.13;7.90;;;;;;;15.60;80.74;100024.00;5034523;28;20021;-76
2021/05/21 00:41:55;;;;;;;8.32;7.20;;;;;;;15.74;80.61;100031.03;5042852;28;20124;-70
2021/05/21 00:44:21;;;;;;;7.72;6.93;;;;;;;15.75;80.00;100036.28;5051506;28;20025;-74
2021/05/21 00:46:47;;;;;;;8.30;7.50;;;;;;;15.73;80.33;100034.53;5051509;28;20182;-70
2021/05/21 00:49:17;;;;;;;9.23;8.23;;;;;;;15.59;80.82;100036.97;5051043;28;20029;-72
2021/05/21 00:51:46;;;;;;;8.85;7.70;;;;;;;15.51;80.93;100027.41;5051083;28;20040;-72
2021/05/21 00:54:19;;;;;;;9.93;8.35;;;;;;;15.49;81.73;100028.25;5051518;28;20025;-72
2021/05/21 00:56:46;;;;;;;9.45;8.20;;;;;;;15.46;82.22;100036.00;5051153;28;20040;-73
2021/05/21 00:59:11;;;;;;;11.05;8.52;;;;;;;15.45;82.30;100042.94;5051361;28;20022;-73
2021/05/21 01:01:37;;;;;;;9.35;8.05;;;;;;;15.49;81.81;100041.25;5051431;28;20167;-71
2021/05/21 01:04:04;;;;;;;9.20;8.13;;;;;;;15.08;81.84;99979.25;5051284;28;20052;-70
2021/05/21 01:06:30;;;;;;;11.10;8.05;;;;;;;15.24;82.70;100037.50;5051350;28;20025;-73
2021/05/21 01:08:56;;;;;;;9.43;8.43;;;;;;;15.16;83.83;100048.69;5049401;28;20032;-69
2021/05/21 01:11:21;;;;;;;11.70;8.73;;;;;;;14.96;84.71;100026.78;5051126;28;20505;-70
2021/05/21 01:13:47;;;;;;;8.45;7.35;;;;;;;15.01;85.24;100036.38;5050889;28;20021;-69
2021/05/21 01:16:13;;;;;;;10.13;7.57;;;;;;;14.60;85.53;100015.06;5050077;28;20455;-72
2021/05/21 01:18:39;;;;;;;8.60;7.28;;;;;;;14.68;86.69;100029.91;5051035;28;20504;-71
2021/05/21 01:21:04;;;;;;;9.95;7.03;;;;;;;14.66;86.14;100015.16;5032972;28;20465;-71
2021/05/21 01:23:30;;;;;;;7.68;6.88;;;;;;;14.87;85.68;100030.16;5050905;28;20032;-72
2021/05/21 01:25:56;;;;;;;10.02;6.65;;;;;;;14.86;84.79;100036.19;5051195;28;20013;-71
2021/05/21 01:28:22;;;;;;;8.55;7.15;;;;;;;14.57;84.59;99969.13;5033210;28;20029;-71
2021/05/21 01:30:49;;;;;;;10.40;7.00;;;;;;;15.05;83.89;100029.47;5050849;28;20167;-72
2021/05/21 01:33:14;;;;;;;7.95;7.15;;;;;;;14.96;84.29;100030.25;5050814;28;20063;-71
2021/05/21 01:35:41;;;;;;;8.45;7.25;;;;;;;15.02;84.23;100038.13;5050640;28;20122;-71
2021/05/21 01:38:07;;;;;;;8.05;7.25;;;;;;;14.69;83.80;99977.09;5051181;28;20047;-71
2021/05/21 01:40:36;;;;;;;8.75;6.93;;;;;;;14.93;84.38;100019.84;5050623;28;20584;-74
2021/05/21 01:43:02;;;;;;;10.45;7.68;;;;;;;15.10;84.06;100026.94;5050716;28;20035;-73
2021/05/21 01:45:28;;;;;;;9.57;7.90;;;;;;;15.09;83.77;100023.50;5049483;28;20040;-71
2021/05/21 01:47:54;;;;;;;7.82;7.03;;;;;;;15.24;83.73;100029.69;5050527;28;20475;-72
2021/05/21 01:50:19;;;;;;;8.65;6.95;;;;;;;15.32;83.20;100030.66;5050773;28;20025;-73
2021/05/21 01:52:45;;;;;;;10.27;7.95;;;;;;;15.33;82.81;100037.59;5032727;28;20112;-71
2021/05/21 01:55:12;;;;;;;8.70;7.57;;;;;;;15.36;82.80;100035.03;5050642;28;20037;-72
2021/05/21 01:57:38;;;;;;;9.55;7.93;;;;;;;15.34;82.74;100036.75;5050633;28;20028;-74
2021/05/21 02:00:06;;;;;;;8.68;7.30;;;;;;;15.46;82.59;100036.84;5051648;28;20029;-72
2021/05/21 02:02:32;;;;;;;8.15;7.10;;;;;;;15.18;82.14;99981.13;5037466;28;20394;-72
2021/05/21 02:04:57;;;;;;;8.55;7.65;;;;;;;15.63;81.84;100039.63;5054635;28;20115;-73
2021/05/21 02:07:23;;;;;;;9.30;7.45;;;;;;;15.59;81.14;100036.97;5054771;28;20105;-72
2021/05/21 02:09:54;;;;;;;7.85;7.05;;;;;;;15.60;81.53;100039.63;5054676;28;20029;-72
2021/05/21 02:12:22;;;;;;;9.35;7.47;;;;;;;15.26;82.11;100034.06;5054413;28;20049;-70
2021/05/21 02:14:47;;;;;;;9.85;6.93;;;;;;;15.20;82.21;100026.19;5054490;28;20064;-72
2021/05/21 02:17:13;;;;;;;8.75;6.43;;;;;;;15.13;81.88;100027.00;5054057;28;20060;-71
2021/05/21 02:19:38;;;;;;;6.15;5.55;;;;;;;14.99;82.55;100051.09;5054629;28;20025;-73
2021/05/21 02:22:06;;;;;;;6.43;5.72;;;;;;;14.74;83.58;100041.25;5054806;28;20454;-71
2021/05/21 02:24:31;;;;;;;5.85;5.25;;;;;;;14.67;84.17;100048.09;5054266;28;20035;-71
2021/05/21 02:26:57;;;;;;;6.57;4.88;;;;;;;14.57;84.19;100039.25;5054576;28;20107;-73
2021/05/21 02:29:22;;;;;;;6.95;5.15;;;;;;;14.61;84.26;100022.84;5054079;28;20445;-70
2021/05/21 02:31:48;;;;;;;6.28;5.60;;;;;;;14.59;84.52;100024.56;5054165;28;20036;-72
2021/05/21 02:34:13;;;;;;;7.03;5.35;;;;;;;14.58;84.94;100025.44;5002062;28;20140;-71
2021/05/21 02:36:39;;;;;;;6.38;5.47;;;;;;;14.55;84.93;100015.88;5054429;28;20033;-76
2021/05/21 02:39:05;;;;;;;6.43;5.15;;;;;;;14.33;85.33;100022.50;5054436;28;20090;-74
2021/05/21 02:41:30;;;;;;;7.15;5.70;;;;;;;14.29;86.54;100017.22;5054442;28;20045;-71
2021/05/21 02:43:56;;;;;;;9.50;5.97;;;;;;;14.19;86.34;99979.88;5054104;28;20090;-72
2021/05/21 02:46:21;;;;;;;5.78;5.13;;;;;;;14.54;86.16;100010.63;5018637;28;20028;-74
2021/05/21 02:48:47;;;;;;;9.80;5.25;;;;;;;14.48;85.74;100016.63;5054284;28;20054;-70
2021/05/21 02:51:12;;;;;;;6.32;5.53;;;;;;;14.37;86.01;99994.84;5053698;28;20494;-70
2021/05/21 02:53:38;;;;;;;7.63;6.47;;;;;;;14.57;85.59;100014.16;5053678;28;20025;-72
2021/05/21 02:56:04;;;;;;;7.63;5.70;;;;;;;14.60;85.29;100002.06;5053465;28;20057;-72
2021/05/21 02:58:29;;;;;;;9.32;5.60;;;;;;;14.71;84.75;100003.97;5053975;28;20035;-70
2021/05/21 03:00:55;;;;;;;6.72;5.63;;;;;;;14.72;84.46;100004.84;5053531;28;20220;-71
2021/05/21 03:03:20;;;;;;;6.80;5.53;;;;;;;14.71;84.39;100003.09;5051143;28;20414;-71
2021/05/21 03:05:46;;;;;;;8.73;5.90;;;;;;;14.78;84.17;100015.31;5053718;28;20021;-71
2021/05/21 03:08:12;;;;;;;6.43;5.78;;;;;;;14.95;84.02;100025.91;5051493;28;20037;-70
2021/05/21 03:10:37;;;;;;;6.53;5.70;;;;;;;15.02;83.22;100029.47;5053278;28;20055;-69
2021/05/21 03:13:03;;;;;;;6.90;5.70;;;;;;;15.07;82.24;100038.19;5053638;28;20028;-70
2021/05/21 03:15:29;;;;;;;5.78;5.18;;;;;;;15.08;81.56;100045.13;5053243;28;20063;-71
2021/05/21 03:17:55;;;;;;;5.80;5.20;;;;;;;14.72;80.83;99984.91;5051352;28;20037;-73
2021/05/21 03:20:20;;;;;;;7.38;5.05;;;;;;;15.18;81.43;100064.31;5053455;28;20083;-69
2021/05/21 03:22:46;;;;;;;9.05;5.00;;;;;;;15.12;81.38;100051.25;5053397;28;20479;-72
2021/05/21 03:25:12;;;;;;;6.20;5.28;;;;;;;15.17;81.62;100059.97;5053209;28;20031;-71
2021/05/21 03:27:37;;;;;;;6.93;5.30;;;;;;;15.12;81.71;100066.84;5052962;28;20021;-73
2021/05/21 03:30:06;;;;;;;7.20;5.32;;;;;;;15.17;82.16;100067.78;5035061;28;20037;-75
2021/05/21 03:32:32;;;;;;;9.95;5.40;;;;;;;15.11;82.11;100076.34;5034836;28;20017;-71
2021/05/21 03:34:57;;;;;;;8.02;5.50;;;;;;;15.08;82.37;100081.53;5053188;28;20041;-74
2021/05/21 03:37:23;;;;;;;6.35;5.10;;;;;;;14.99;82.54;100077.09;5052884;28;20025;-70
2021/05/21 03:39:48;;;;;;;6.32;5.35;;;;;;;14.84;83.03;100082.06;5052963;28;20399;-73
2021/05/21 03:42:14;;;;;;;6.25;5.07;;;;;;;14.72;83.95;100088.84;5053408;28;20076;-72
2021/05/21 03:44:39;;;;;;;5.82;5.03;;;;;;;14.72;83.65;100081.06;5052598;28;20100;-72
2021/05/21 03:47:05;;;;;;;6.45;4.82;;;;;;;14.51;84.32;100091.13;5034608;28;20064;-71
2021/05/21 03:49:31;;;;;;;6.38;5.18;;;;;;;14.36;85.73;100094.38;5052710;28;20037;-73
2021/05/21 03:51:57;;;;;;;6.20;5.50;;;;;;;14.29;85.59;100095.97;5053086;28;20112;-70
2021/05/21 03:54:23;;;;;;;6.10;4.90;;;;;;;14.17;86.06;100094.06;5034560;28;20037;-70
2021/05/21 03:56:52;;;;;;;5.95;4.70;;;;;;;14.01;86.85;100098.13;5034963;28;20032;-74
2021/05/21 03:59:18;;;;;;;6.40;4.93;;;;;;;13.96;88.27;100092.00;5034977;28;20031;-74
2021/05/21 04:01:45;;;;;;;6.63;4.75;;;;;;;13.92;87.95;100090.22;5032214;28;20422;-70
2021/05/21 04:04:11;;;;;;;6.88;4.22;;;;;;;13.34;88.51;100017.38;5051956;28;20078;-71
2021/05/21 04:06:36;;;;;;;7.55;4.10;;;;;;;13.55;89.08;100090.41;5039133;28;20033;-71
2021/05/21 04:09:06;;;;;;;7.40;4.65;;;;;;;13.47;90.07;100092.00;5052119;28;20021;-72
2021/05/21 04:11:33;;;;;;;5.63;4.05;;;;;;;13.33;90.59;100094.25;5034764;28;20380;-72
2021/05/21 04:14:00;;;;;;;7.57;4.30;;;;;;;13.33;91.67;100091.66;5051497;28;20184;-72
2021/05/21 04:16:25;;;;;;;8.07;4.45;;;;;;;13.49;91.15;100090.28;5052258;28;20135;-76
2021/05/21 04:18:51;;;;;;;5.22;4.05;;;;;;;13.45;90.02;100082.44;5034357;28;20476;-72
2021/05/21 04:21:18;;;;;;;3.92;3.53;;;;;;;13.07;89.08;100026.38;5034187;28;20032;-76
2021/05/21 04:23:43;;;;;;;6.00;3.28;;;;;;;12.55;88.23;99951.09;5050648;28;20402;-71
2021/05/21 04:26:09;;;;;;;4.30;3.10;;;;;;;13.35;88.78;100108.13;5051982;28;20033;-74
2021/05/21 04:28:35;;;;;;;5.47;3.30;;;;;;;13.46;88.99;100125.66;5051697;28;20033;-72
2021/05/21 04:31:00;;;;;;;4.03;3.33;;;;;;;13.46;88.90;100130.84;5051749;28;20044;-70
2021/05/21 04:33:26;;;;;;;5.32;3.55;;;;;;;13.16;88.60;100129.34;5052112;28;20529;-72
2021/05/21 04:35:51;;;;;;;6.28;3.38;;;;;;;13.30;89.19;100147.81;5048628;28;20048;-69
2021/05/21 04:38:17;;;;;;;5.55;3.85;;;;;;;13.10;89.85;100133.56;5051936;28;20104;-69
2021/05/21 04:40:42;;;;;;;4.95;3.70;;;;;;;13.34;89.89;100154.78;5033698;28;20045;-73
2021/05/21 04:43:08;;;;;;;4.38;2.95;;;;;;;13.21;89.78;100151.06;5023559;28;20032;-71
2021/05/21 04:45:33;;;;;;;6.93;3.45;;;;;;;12.74;90.60;100081.84;5044114;28;20049;-76
2021/05/21 04:47:59;;;;;;;5.50;3.63;;;;;;;13.18;90.69;100153.59;5036554;28;20107;-73
2021/05/21 04:50:24;;;;;;;5.35;3.50;;;;;;;13.06;90.66;100157.66;5038267;28;20128;-72
2021/05/21 04:52:50;;;;;;;5.80;3.63;;;;;;;12.93;90.79;100147.88;5038364;28;20028;-70
2021/05/21 04:55:15;;;;;;;6.55;4.22;;;;;;;12.99;91.48;100152.31;5033508;28;20025;-71
2021/05/21 04:57:42;;;;;;;5.28;3.47;;;;;;;12.92;90.74;100151.28;5037683;28;20519;-70
2021/05/21 05:00:09;;;;;;;5.95;3.80;;;;;;;12.96;91.59;100158.31;5032875;28;21651;-69
2021/05/21 05:02:34;;;;;;;6.63;4.00;;;;;;;13.08;91.02;100162.88;4990461;28;20038;-74
2021/05/21 05:04:59;;;;;;;7.53;3.78;;;;;;;12.95;90.69;100156.56;4991681;28;20034;-71
2021/05/21 05:07:25;;;;;;;5.68;3.50;;;;;;;13.13;91.28;100170.75;4975892;28;20042;-72
2021/05/21 05:09:50;;;;;;;10.23;4.03;;;;;;;12.95;90.79;100146.19;4990699;28;20033;-71
2021/05/21 05:12:16;;;;;;;8.00;4.53;;;;;;;13.05;90.38;100158.50;4991331;28;20038;-70
2021/05/21 05:14:41;;;;;;;7.78;4.13;;;;;;;13.26;90.34;100189.19;4989593;28;20547;-74
2021/05/21 05:17:07;;;;;;;6.28;4.50;;;;;;;13.12;90.26;100162.09;4990189;28;20463;-71
2021/05/21 05:19:32;;;;;;;5.10;3.97;;;;;;;12.89;90.44;100107.19;4989250;28;20026;-71
2021/05/21 05:21:58;;;;;;;5.90;3.90;;;;;;;13.47;89.67;100194.84;4992313;28;20035;-71
2021/05/21 05:24:25;;;;;;;6.22;3.95;;;;;;;13.16;88.86;100121.56;4992199;28;20092;-71
2021/05/21 05:26:51;;;;;;;5.35;4.45;;;;;;;13.45;89.41;100178.38;4990294;28;20460;-70
2021/05/21 05:29:17;;;;;;;6.55;4.18;;;;;;;13.53;90.20;100193.25;4991811;28;20193;-71
2021/05/21 05:31:46;;;;;;;5.53;4.07;;;;;;;13.11;90.13;100112.00;4989955;28;20030;-71
2021/05/21 05:34:12;;;;;;;5.53;4.30;;;;;;;13.45;89.75;100191.34;4989544;28;20173;-72
2021/05/21 05:36:37;;;;;;;6.13;4.25;;;;;;;13.48;89.39;100189.66;4989418;28;20038;-70
2021/05/21 05:39:05;;;;;;;6.53;5.00;;;;;;;13.46;90.20;100208.63;5021899;28;20030;-70
2021/05/21 05:41:31;;;;;;;6.35;4.57;;;;;;;13.56;90.27;100208.00;5050260;28;20479;-71
2021/05/21 05:43:57;;;;;;;6.57;4.82;;;;;;;13.23;89.85;100141.59;5048654;28;20025;-70
2021/05/21 05:46:22;;;;;;;6.22;4.70;;;;;;;13.67;89.66;100208.19;5049545;28;20025;-70
2021/05/21 05:55:31;;;;;;;6.15;4.20;;;;;;;13.90;89.32;100225.09;5048449;28;20036;-71
2021/05/21 05:57:56;;;;;;;8.32;4.75;;;;;;;13.73;89.31;100166.81;5048157;28;20021;-69
2021/05/21 06:00:22;;;;;;;8.25;4.57;;;;;;;14.10;88.81;100222.00;5050177;28;20500;-72
2021/05/21 06:02:47;;;;;;;5.45;4.40;;;;;;;14.03;89.48;100210.66;5050513;28;20068;-73
2021/05/21 06:05:13;;;;;;;6.22;4.07;;;;;;;14.06;89.50;100215.03;5050330;28;20025;-72
2021/05/21 06:07:38;;;;;;;6.50;4.03;;;;;;;13.89;89.69;100217.28;5046960;28;20033;-72
2021/05/21 06:10:05;;;;;;;6.93;4.13;;;;;;;13.94;90.93;100205.28;5045229;28;20032;-70
2021/05/21 06:12:30;;;;;;;5.72;4.40;;;;;;;13.82;91.09;100192.06;5050464;28;20024;-70
2021/05/21 06:14:56;;;;;;;7.03;4.65;;;;;;;13.48;91.68;100142.13;5050143;28;20043;-71
2021/05/21 06:17:22;;;;;;;8.20;4.60;;;;;;;13.89;91.76;100212.09;5050589;28;20486;-74
2021/05/21 06:19:48;;;;;;;6.78;4.35;;;;;;;13.86;92.17;100202.53;5050540;28;20029;-70
2021/05/21 06:22:13;;;;;;;5.40;4.72;;;;;;;13.70;91.67;100151.22;5032563;28;20127;-70
2021/05/21 06:24:42;;;;;;;6.13;4.95;;;;;;;14.18;91.90;100219.56;5050499;28;20517;-70
2021/05/21 06:27:19;;;;;;;7.82;5.07;;;;;;;14.28;91.44;100205.91;5008225;28;20041;-71
2021/05/21 06:29:45;;;;;;;6.88;4.97;;;;;;;14.27;89.90;100192.88;5008847;28;20038;-70
2021/05/21 06:32:10;;;;;;;5.85;4.70;;;;;;;14.25;89.94;100177.28;5008504;28;20504;-72
2021/05/21 06:34:36;;;;;;;8.25;4.70;;;;;;;14.43;90.23;100194.00;5008480;28;20536;-71
2021/05/21 06:37:02;;;;;;;6.00;4.80;;;;;;;14.21;89.86;100145.19;5008494;28;20060;-71
2021/05/21 06:39:27;;;;;;;6.70;4.70;;;;;;;14.46;89.59;100197.53;5008644;28;20026;-70
2021/05/21 06:41:53;;;;;;;5.55;4.13;;;;;;;14.47;87.83;100193.25;5008158;28;20076;-70
2021/05/21 06:44:18;;;;;;;6.35;4.40;;;;;;;14.58;86.39;100199.47;5008124;28;21334;-76
2021/05/21 06:46:44;;;;;;;5.53;4.43;;;;;;;14.60;86.78;100200.34;5010121;28;20050;-70
2021/05/21 06:49:14;;;;;;;5.03;4.07;;;;;;;14.54;87.60;100208.06;5011837;28;20573;-71
2021/05/21 06:51:39;;;;;;;6.78;3.85;;;;;;;14.66;87.36;100207.44;5011948;28;20061;-69
2021/05/21 06:54:06;;;;;;;5.63;4.07;;;;;;;14.70;85.52;100204.00;5012218;28;20034;-68
2021/05/21 06:56:31;;;;;;;6.50;4.13;;;;;;;14.60;86.59;100174.38;5011558;28;20114;-69
2021/05/21 06:58:57;;;;;;;6.05;3.70;;;;;;;14.95;85.64;100231.25;5030796;28;20112;-69
2021/05/21 07:01:22;;;;;;;3.97;3.47;;;;;;;14.87;84.01;100233.75;5031682;28;20021;-72
2021/05/21 07:03:48;;;;;;;4.35;3.50;;;;;;;14.81;86.17;100227.59;5033642;28;20026;-69
2021/05/21 07:06:13;;;;;;;6.95;3.22;;;;;;;14.91;82.70;100237.25;5033879;28;20029;-69
2021/05/21 07:08:39;;;;;;;4.13;3.03;;;;;;;14.81;82.56;100224.97;5031197;28;20517;-72
2021/05/21 07:11:04;;;;;;;5.43;3.58;;;;;;;14.92;84.08;100239.03;5032977;28;20033;-69
2021/05/21 07:13:30;;;;;;;4.82;3.25;;;;;;;14.82;79.75;100247.53;5033358;28;20018;-69
2021/05/21 07:15:56;;;;;;;5.63;3.13;;;;;;;14.84;80.35;100238.00;5033684;28;20033;-69
2021/05/21 07:18:24;;;;;;;4.32;2.60;;;;;;;14.46;77.27;100189.75;5049089;28;20030;-68
2021/05/21 07:20:50;;;;;;;5.05;2.90;;;;;;;14.63;78.42;100230.72;5033631;28;20391;-70
2021/05/21 07:23:16;;;;;;;4.13;2.60;;;;;;;14.74;78.32;100257.78;5022248;28;20042;-71
2021/05/21 07:25:42;;;;;;;2.95;2.30;;;;;;;14.58;77.06;100238.44;5012881;28;20045;-73
2021/05/21 07:28:07;;;;;;;3.85;2.40;;;;;;;14.67;78.04;100256.81;5013136;28;20491;-69
2021/05/21 07:30:33;;;;;;;3.67;2.25;;;;;;;14.67;77.75;100267.19;5014067;28;20030;-73
2021/05/21 07:32:58;;;;;;;3.45;2.40;;;;;;;14.76;77.92;100263.03;5014697;28;20105;-71
2021/05/21 07:35:24;;;;;;;3.90;2.45;;;;;;;14.75;77.33;100258.66;5021226;28;20064;-70
2021/05/21 07:37:51;;;;;;;4.78;2.88;;;;;;;14.89;79.93;100262.34;5014282;28;20476;-72
2021/05/21 07:40:17;;;;;;;4.10;2.60;;;;;;;14.95;77.27;100253.78;5011422;28;20743;-73
2021/05/21 07:42:43;;;;;;;4.18;2.58;;;;;;;14.96;77.60;100261.59;4992578;28;20042;-70
2021/05/21 07:45:09;;;;;;;3.38;2.38;;;;;;;15.11;79.18;100266.16;4991015;28;20030;-71
2021/05/21 07:47:35;;;;;;;3.83;2.40;;;;;;;15.23;77.81;100267.19;4992806;28;20534;-69
2021/05/21 07:50:01;;;;;;;3.10;2.40;;;;;;;14.79;77.00;100204.19;5010815;28;20125;-70
2021/05/21 07:52:27;;;;;;;3.60;2.38;;;;;;;15.24;75.63;100268.94;5011063;28;20030;-70
2021/05/21 07:54:52;;;;;;;3.03;2.40;;;;;;;15.26;75.97;100268.09;5009163;28;20129;-70
2021/05/21 07:57:18;;;;;;;4.18;2.85;;;;;;;15.29;76.25;100278.56;5012953;28;20146;-71
2021/05/21 07:59:43;;;;;;;3.50;2.50;;;;;;;15.43;75.71;100288.31;5011495;28;20469;-73
2021/05/21 08:02:09;;;;;;;6.88;2.53;;;;;;;15.13;74.97;100232.41;4998599;28;20037;-73
2021/05/21 08:04:34;;;;;;;3.50;2.90;;;;;;;15.28;74.55;100261.22;5023320;28;20029;-72
2021/05/21 08:07:00;;;;;;;5.05;2.95;;;;;;;15.46;73.64;100299.59;5013068;28;20104;-70
2021/05/21 08:09:26;;;;;;;4.10;2.88;;;;;;;15.48;74.83;100291.84;5012721;28;20026;-70
2021/05/21 08:11:52;;;;;;;4.47;2.90;;;;;;;15.66;75.83;100315.53;5012823;28;20022;-72
2021/05/21 08:14:17;;;;;;;3.83;2.92;;;;;;;15.67;73.65;100305.97;5010187;28;20090;-72
2021/05/21 08:16:43;;;;;;;3.40;2.70;;;;;;;15.65;73.42;100311.16;5010659;28;20497;-69
2021/05/21 08:19:08;;;;;;;4.53;3.28;;;;;;;15.62;73.23;100295.50;5010391;28;20077;-70
2021/05/21 08:21:35;;;;;;;3.90;3.00;;;;;;;15.33;74.02;100238.75;5010678;28;20034;-71
2021/05/21 08:24:00;;;;;;;4.70;3.35;;;;;;;15.63;75.04;100259.94;5008821;28;21042;-72
2021/05/21 08:26:26;;;;;;;2.85;2.28;;;;;;;16.08;73.86;100320.41;5005926;28;20034;-72
2021/05/21 08:28:56;;;;;;;3.08;2.65;;;;;;;16.07;70.64;100313.44;4999967;28;20033;-71
2021/05/21 08:31:23;;;;;;;5.05;2.40;;;;;;;16.10;70.51;100334.31;4996221;28;20030;-70
2021/05/21 08:33:49;;;;;;;8.40;2.47;;;;;;;16.11;70.33;100333.47;5009853;28;20052;-72
2021/05/21 08:36:15;;;;;;;4.72;2.83;;;;;;;16.00;69.18;100331.59;4995317;28;20516;-69
2021/05/21 08:38:44;;;;;;;5.75;2.45;;;;;;;16.02;68.05;100339.44;4984205;28;20030;-72
2021/05/21 08:41:16;;;;;;;4.38;2.70;;;;;;;16.12;70.01;100343.03;4995817;28;20515;-70
2021/05/21 08:43:46;;;;;;;6.45;2.65;;;;;;;16.17;67.00;100346.56;5015273;28;20041;-72
2021/05/21 08:46:12;;;;;;;3.78;2.70;;;;;;;16.15;67.70;100341.34;5012813;28;20046;-71
2021/05/21 08:48:37;;;;;;;4.25;2.75;;;;;;;16.17;69.37;100333.53;5028600;28;20040;-69
2021/05/21 08:51:03;;;;;;;3.90;2.88;;;;;;;16.34;68.25;100350.22;5011894;28;20046;-71
2021/05/21 08:53:28;;;;;;;4.30;2.85;;;;;;;16.48;69.01;100354.72;5027845;28;20400;-70
2021/05/21 08:55:54;;;;;;;4.93;2.65;;;;;;;16.54;68.42;100346.13;5026629;28;20033;-72
2021/05/21 08:58:22;;;;;;;4.03;2.70;;;;;;;16.60;66.86;100349.66;5027046;28;20116;-72
2021/05/21 09:00:49;;;;;;;3.85;2.90;;;;;;;16.61;66.45;100354.00;5034096;28;20053;-72
2021/05/21 09:03:26;;;;;;;22.08;3.60;;;;;;;16.39;66.04;100319.03;5016575;28;20121;-70
2021/05/21 09:08:45;;;;;;;4.00;3.03;;;;;;;16.73;66.99;100347.16;5015264;28;20122;-72
2021/05/21 09:11:37;;;;;;;4.05;3.30;;;;;;;16.75;67.87;100327.22;5021214;28;20039;-71
2021/05/21 09:14:04;;;;;;;5.00;3.10;;;;;;;17.02;66.96;100330.94;5024157;28;20033;-72
2021/05/21 09:16:32;;;;;;;4.35;3.05;;;;;;;17.07;66.15;100335.34;5012361;28;20030;-72
2021/05/21 09:19:13;;;;;;;4.25;3.28;;;;;;;17.14;68.49;100337.09;5011677;28;20041;-72
2021/05/21 09:22:04;;;;;;;8.63;3.75;;;;;;;17.01;67.35;100332.69;5011484;28;20444;-70
2021/05/21 09:24:32;;;;;;;7.70;3.90;;;;;;;16.95;66.09;100343.91;5013215;28;20476;-69
2021/05/21 09:26:59;;;;;;;4.60;3.00;;;;;;;16.78;66.57;100288.13;5010209;28;20488;-71
2021/05/21 09:29:35;;;;;;;5.18;3.10;;;;;;;17.05;65.41;100336.19;5016556;28;20030;-72
2021/05/21 09:32:14;;;;;;;8.90;4.00;;;;;;;17.16;67.09;100337.16;5013479;28;20045;-71
2021/05/21 09:34:39;;;;;;;5.90;3.60;;;;;;;17.23;66.70;100351.97;5012385;28;20113;-71
2021/05/21 09:37:05;;;;;;;4.03;2.83;;;;;;;17.25;63.76;100324.16;5026443;28;20522;-70
2021/05/21 09:39:30;;;;;;;18.77;3.00;;;;;;;17.27;65.18;100334.59;5010939;28;20519;-69
2021/05/21 10:46:42;;;;;;;5.82;2.72;;;;;;;17.13;65.94;100413.66;5034519;28;20060;-67
2021/05/21 10:49:27;;;;;;;5.35;3.05;;;;;;;17.32;65.29;100412.91;5054069;28;20029;-68
2021/05/21 10:51:54;;;;;;;5.25;2.70;;;;;;;17.36;64.42;100405.13;5053694;28;20028;-69
2021/05/21 10:54:28;;;;;;;4.03;2.72;;;;;;;16.60;63.37;100296.66;5054032;28;20025;-70
2021/05/21 10:57:14;;;;;;;3.65;2.47;;;;;;;17.16;63.72;100402.34;5053900;28;20071;-71
2021/05/21 10:59:49;;;;;;;2.80;2.47;;;;;;;17.12;63.28;100406.66;5011053;28;20496;-69
2021/05/21 11:02:14;;;;;;;3.38;2.30;;;;;;;17.11;63.88;100410.13;5011277;28;20492;-71
2021/05/21 11:04:40;;;;;;;4.40;2.22;;;;;;;17.28;65.45;100402.47;5011556;28;20033;-68
2021/05/21 11:07:06;;;;;;;4.82;2.22;;;;;;;17.43;64.27;100400.81;5011909;28;20107;-68
2021/05/21 11:09:41;;;;;;;2.28;2.05;;;;;;;17.94;62.86;100404.69;5011789;28;20048;-69
2021/05/21 11:12:14;;;;;;;4.75;1.90;;;;;;;18.10;62.01;100395.16;5011527;28;20439;-71
2021/05/21 11:14:42;;;;;;;2.85;1.90;;;;;;;18.09;58.26;100397.78;5011375;28;20073;-67
2021/05/21 11:17:12;;;;;;;2.85;2.00;;;;;;;17.98;59.80;100397.75;5011371;28;20022;-68
2021/05/21 11:19:42;;;;;;;;;;;;;;;17.95;61.27;100390.75;5012165;28;20037;-68
2021/05/21 11:22:17;;;;;;;1.88;1.67;;;;;;;17.96;59.48;100391.63;5008936;28;19917;-68
2021/05/21 11:24:45;;;;;;;3.25;2.10;;;;;;;18.10;60.93;100400.41;4990459;28;20042;-72
2021/05/21 11:27:12;;;;;;;3.38;1.88;;;;;;;17.99;60.06;100380.34;5010860;28;20092;-70
2021/05/21 11:29:42;;;;;;;6.82;2.20;;;;;;;18.15;58.91;100396.97;5014175;28;20562;-67
2021/05/21 11:32:08;;;;;;;6.38;1.90;;;;;;;18.27;59.93;100397.00;5046325;28;20030;-69
2021/05/21 11:34:33;;;;;;;2.10;1.80;;;;;;;18.31;58.18;100393.53;5035094;28;20078;-68
2021/05/21 11:36:59;;;;;;;2.17;1.70;;;;;;;17.90;58.62;100310.59;5045908;28;20079;-67
2021/05/21 11:39:26;;;;;;;3.97;2.25;;;;;;;18.39;60.46;100356.97;5053122;28;20384;-69
2021/05/21 11:41:54;;;;;;;3.30;1.85;;;;;;;18.59;57.08;100414.53;5017883;28;20029;-69
2021/05/21 11:44:25;;;;;;;14.98;2.17;;;;;;;18.36;57.14;100417.94;5053003;28;20029;-68
2021/05/21 11:46:57;;;;;;;6.10;2.10;;;;;;;17.93;58.85;100350.69;5037758;28;20094;-69
2021/05/21 11:49:23;;;;;;;6.97;2.00;;;;;;;18.17;58.86;100417.00;5035713;28;20045;-68
2021/05/21 11:52:06;;;;;;;4.78;1.60;;;;;;;18.06;59.19;100422.16;5020666;28;20037;-69
2021/05/21 11:54:39;;;;;;;6.18;1.67;;;;;;;17.97;60.20;100429.97;5032803;28;20068;-67
2021/05/21 11:57:05;;;;;;;7.22;1.75;;;;;;;17.93;60.08;100410.75;5040075;28;20108;-68
2021/05/21 11:59:31;;;;;;;7.03;1.90;;;;;;;17.95;58.59;100416.88;5035277;28;20116;-68
2021/05/21 12:02:01;;;;;;;3.75;1.73;;;;;;;18.04;59.48;100431.72;5038318;28;20034;-68
2021/05/21 12:04:32;;;;;;;3.42;2.10;;;;;;;18.04;58.83;100430.84;5034355;28;20061;-67
2021/05/21 12:06:58;;;;;;;3.10;1.35;;;;;;;17.76;57.86;100375.81;5052566;28;20021;-68
2021/05/21 12:09:25;;;;;;;2.83;2.00;;;;;;;18.11;57.93;100436.13;5037261;28;20026;-69
2021/05/21 12:11:53;;;;;;;3.70;1.60;;;;;;;18.16;57.90;100443.13;5047672;28;20455;-67
2021/05/21 12:14:22;;;;;;;3.03;1.60;;;;;;;18.26;59.61;100444.91;5052701;28;20090;-69
2021/05/21 12:16:50;;;;;;;8.77;1.70;;;;;;;18.40;59.30;100442.34;5052047;28;20025;-69
2021/05/21 12:19:18;;;;;;;8.07;1.90;;;;;;;18.76;59.23;100438.13;5052578;28;20513;-70
2021/05/21 12:21:50;;;;;;;4.72;1.63;;;;;;;19.21;57.03;100446.94;5040149;28;20454;-69
2021/05/21 12:24:20;;;;;;;4.15;1.30;;;;;;;19.39;56.66;100446.09;5033730;28;20029;-69
2021/05/21 12:26:48;;;;;;;3.85;1.55;;;;;;;19.09;56.60;100436.50;5032213;28;20022;-70
2021/05/21 12:29:14;;;;;;;3.15;1.48;;;;;;;18.80;57.43;100434.63;5034111;28;20024;-71
2021/05/21 12:31:57;;;;;;;2.05;1.40;;;;;;;18.84;56.31;100452.09;5022392;28;20952;-72
2021/05/21 12:34:24;;;;;;;1.88;1.30;;;;;;;18.58;55.53;100452.88;5039156;28;20024;-70
2021/05/21 12:37:07;;;;;;;2.42;1.40;;;;;;;18.20;57.05;100447.50;5052467;28;20029;-71